Time;durP1;ratioP1;P1;durP2;ratioP2;P2;SDS_P1;SDS_P2;PMS_P1;PMS_P2;Temp;Humidity;BMP_temperature;BMP_pressure;BME280_temperature;BME280_humidity;BME280_pressure;Samples;Min_cycle;Max_cycle;Signal;HPM_P1;HPM_P2
2024/01/02 00:00:03;;;;;;;19.15;10.98;;;10.20;63.50;;;;;;349645;28;1221;-54
2024/01/02 00:00:14;;;;;;;20.00;10.95;;;10.20;63.50;;;;;;349765;28;893;-55
2024/01/02 00:00:25;;;;;;;19.65;11.05;;;10.20;63.50;;;;;;349755;28;1063;-56
2024/01/02 00:00:36;;;;;;;20.15;10.98;;;10.20;63.50;;;;;;349726;28;1119;-55
2024/01/02 00:00:47;;;;;;;19.67;11.17;;;10.20;63.40;;;;;;349686;28;1029;-55
2024/01/02 00:00:57;;;;;;;19.88;10.95;;;10.20;63.40;;;;;;349757;28;1067;-55
2024/01/02 00:01:08;;;;;;;18.70;10.48;;;10.20;63.40;;;;;;349787;28;901;-56
2024/01/02 00:01:19;;;;;;;17.52;10.32;;;10.20;63.40;;;;;;349796;28;866;-56
2024/01/02 00:01:30;;;;;;;17.40;10.20;;;10.20;63.40;;;;;;349672;28;1060;-57
2024/01/02 00:01:41;;;;;;;18.30;10.45;;;10.20;63.40;;;;;;349786;28;905;-54
2024/01/02 00:01:52;;;;;;;19.00;10.85;;;10.20;63.40;;;;;;349769;28;866;-56
2024/01/02 00:02:03;;;;;;;19.40;11.05;;;10.20;63.40;;;;;;349737;28;1151;-56
2024/01/02 00:02:14;;;;;;;19.95;10.93;;;10.20;63.40;;;;;;349668;28;1116;-56
2024/01/02 00:02:24;;;;;;;21.05;11.15;;;10.20;63.40;;;;;;349777;28;1027;-55
2024/01/02 00:02:35;;;;;;;19.98;10.80;;;10.20;63.40;;;;;;349806;28;969;-56
2024/01/02 00:02:46;;;;;;;20.70;10.90;;;10.20;63.40;;;;;;349805;28;838;-57
2024/01/02 00:02:57;;;;;;;20.63;10.80;;;10.20;63.40;;;;;;349689;28;1012;-55
2024/01/02 00:03:08;;;;;;;21.50;11.20;;;10.20;63.40;;;;;;349773;28;1031;-56
2024/01/02 00:03:19;;;;;;;22.52;11.18;;;10.20;63.40;;;;;;349707;28;883;-55
2024/01/02 00:03:29;;;;;;;21.95;11.18;;;10.20;63.40;;;;;;349785;28;861;-56
2024/01/02 00:03:40;;;;;;;20.55;10.90;;;10.20;63.40;;;;;;349714;28;887;-57
2024/01/02 00:03:51;;;;;;;20.45;10.63;;;10.20;63.40;;;;;;349700;28;1247;-57
2024/01/02 00:04:03;;;;;;;20.57;10.57;;;10.20;63.50;;;;;;349670;28;1044;-55
2024/01/02 00:04:13;;;;;;;21.13;10.82;;;10.20;63.50;;;;;;349743;28;1004;-55
2024/01/02 00:04:24;;;;;;;19.63;11.10;;;10.20;63.50;;;;;;349662;28;1289;-57
2024/01/02 00:04:35;;;;;;;19.98;11.68;;;10.10;63.50;;;;;;349787;28;956;-56
2024/01/02 00:04:46;;;;;;;20.23;11.88;;;10.10;63.50;;;;;;349679;28;1082;-56
2024/01/02 00:04:57;;;;;;;20.63;11.50;;;10.20;63.50;;;;;;349746;28;1099;-55
2024/01/02 00:05:08;;;;;;;20.48;10.95;;;10.10;63.50;;;;;;349693;28;1850;-56
2024/01/02 00:05:19;;;;;;;20.35;10.95;;;10.20;63.50;;;;;;349744;28;1119;-56
2024/01/02 00:05:30;;;;;;;19.92;10.75;;;10.10;63.40;;;;;;349641;28;1119;-56
2024/01/02 00:05:41;;;;;;;18.10;10.75;;;10.20;63.40;;;;;;349773;28;1032;-57
2024/01/02 00:05:51;;;;;;;19.85;11.20;;;10.10;63.40;;;;;;349687;28;1215;-56
2024/01/02 00:06:02;;;;;;;21.70;11.53;;;10.10;63.50;;;;;;349788;28;845;-55
2024/01/02 00:06:17;;;;;;;22.45;12.23;;;10.10;63.50;;;;;;349638;28;1062;-56
2024/01/02 00:06:28;;;;;;;18.80;12.02;;;10.10;63.60;;;;;;349790;28;1111;-54
2024/01/02 00:06:39;;;;;;;18.25;12.10;;;10.10;63.60;;;;;;349611;28;1593;-57
2024/01/02 00:06:50;;;;;;;18.55;11.85;;;10.10;63.60;;;;;;349789;28;1076;-55
2024/01/02 00:07:01;;;;;;;21.00;12.35;;;10.10;63.60;;;;;;349663;28;1184;-55
2024/01/02 00:07:12;;;;;;;22.10;12.57;;;10.10;63.60;;;;;;349791;28;1768;-55
2024/01/02 00:07:23;;;;;;;24.23;12.85;;;10.10;63.70;;;;;;349688;28;1050;-55
2024/01/02 00:07:33;;;;;;;23.00;12.98;;;10.10;63.60;;;;;;349773;28;857;-56
2024/01/02 00:07:44;;;;;;;22.80;13.10;;;10.10;63.60;;;;;;349622;28;1454;-55
2024/01/02 00:07:55;;;;;;;20.33;12.75;;;10.10;63.60;;;;;;349748;28;1107;-57
2024/01/02 00:08:06;;;;;;;23.17;12.80;;;10.10;63.60;;;;;;349784;28;1032;-55
2024/01/02 00:08:16;;;;;;;23.40;12.52;;;10.10;63.70;;;;;;349652;28;1383;-56
2024/01/02 00:08:27;;;;;;;22.98;12.13;;;10.10;63.70;;;;;;349695;28;1087;-56
2024/01/02 00:08:38;;;;;;;22.13;12.07;;;10.10;63.70;;;;;;349769;28;1097;-56
2024/01/02 00:08:49;;;;;;;22.42;12.15;;;10.10;63.70;;;;;;349721;28;909;-56
2024/01/02 00:08:59;;;;;;;26.37;12.50;;;10.10;63.70;;;;;;349715;28;1135;-55
2024/01/02 00:09:10;;;;;;;25.80;12.13;;;10.10;63.70;;;;;;349636;28;2860;-55
2024/01/02 00:09:21;;;;;;;23.48;11.98;;;10.00;63.70;;;;;;349766;28;1092;-54
2024/01/02 00:09:32;;;;;;;19.50;11.32;;;10.10;63.80;;;;;;349742;28;905;-56
2024/01/02 00:09:42;;;;;;;20.20;11.07;;;10.10;63.70;;;;;;349777;28;1881;-57
2024/01/02 00:09:53;;;;;;;22.57;11.23;;;10.10;63.80;;;;;;349709;28;956;-56
2024/01/02 00:10:04;;;;;;;22.38;11.50;;;10.10;63.80;;;;;;349769;28;1003;-55
2024/01/02 00:10:15;;;;;;;20.45;11.40;;;10.10;63.70;;;;;;349705;28;1054;-56
2024/01/02 00:10:26;;;;;;;18.98;11.05;;;10.00;63.70;;;;;;349811;28;1290;-56
2024/01/02 00:10:37;;;;;;;18.83;10.68;;;10.10;63.70;;;;;;349633;28;1084;-57
2024/01/02 00:10:47;;;;;;;19.00;10.38;;;10.10;63.60;;;;;;349714;28;1058;-56
2024/01/02 00:10:58;;;;;;;20.70;10.43;;;10.00;63.50;;;;;;349786;28;893;-56
2024/01/02 00:11:09;;;;;;;21.67;10.50;;;10.00;63.30;;;;;;349742;28;1080;-56
2024/01/02 00:11:20;;;;;;;20.63;10.52;;;10.10;63.20;;;;;;349600;28;1898;-56
2024/01/02 00:11:31;;;;;;;20.23;10.32;;;10.10;63.10;;;;;;349766;28;948;-55
2024/01/02 00:11:45;;;;;;;17.92;9.82;;;10.00;63.00;;;;;;349754;28;866;-58
2024/01/02 00:11:56;;;;;;;17.27;9.65;;;10.10;62.90;;;;;;349718;28;989;-56
2024/01/02 00:12:07;;;;;;;17.50;10.03;;;10.00;62.80;;;;;;349631;28;1020;-56
2024/01/02 00:12:18;;;;;;;17.75;10.23;;;10.10;62.70;;;;;;349761;28;1974;-57
2024/01/02 00:12:29;;;;;;;17.73;10.68;;;10.10;62.60;;;;;;349748;28;1903;-56
2024/01/02 00:12:40;;;;;;;19.90;10.65;;;10.10;62.60;;;;;;349705;28;1520;-55
2024/01/02 00:12:50;;;;;;;19.10;10.37;;;10.10;62.50;;;;;;349649;28;1110;-54
2024/01/02 00:13:01;;;;;;;19.95;10.38;;;10.10;62.50;;;;;;349776;28;854;-56
2024/01/02 00:13:12;;;;;;;18.83;10.65;;;10.00;62.40;;;;;;349701;28;1104;-54
2024/01/02 00:13:23;;;;;;;20.17;10.73;;;10.00;62.50;;;;;;349790;28;1037;-56
2024/01/02 00:13:33;;;;;;;20.27;10.40;;;10.00;62.40;;;;;;349640;28;1111;-57
2024/01/02 00:13:44;;;;;;;20.05;10.35;;;10.00;62.40;;;;;;349680;28;1868;-55
2024/01/02 00:13:55;;;;;;;20.03;10.80;;;10.00;62.40;;;;;;349674;28;1534;-55
2024/01/02 00:14:06;;;;;;;19.85;11.27;;;10.00;62.30;;;;;;349719;28;1519;-55
2024/01/02 00:14:16;;;;;;;19.85;11.20;;;10.00;62.20;;;;;;349725;28;1178;-56
2024/01/02 00:14:28;;;;;;;19.48;10.88;;;10.00;62.10;;;;;;349717;28;1012;-54
2024/01/02 00:14:39;;;;;;;19.27;10.55;;;10.00;62.10;;;;;;349643;28;1032;-55
2024/01/02 00:14:51;;;;;;;20.02;10.15;;;10.00;62.00;;;;;;349653;28;1409;-55
2024/01/02 00:15:03;;;;;;;20.17;10.60;;;10.00;61.90;;;;;;349671;28;1078;-54
2024/01/02 00:15:13;;;;;;;18.38;10.60;;;10.00;61.80;;;;;;349777;28;1047;-54
2024/01/02 00:15:25;;;;;;;17.33;10.52;;;10.00;61.80;;;;;;349675;28;906;-54
2024/01/02 00:15:36;;;;;;;16.58;10.32;;;10.00;61.80;;;;;;349673;28;1527;-56
2024/01/02 00:15:47;;;;;;;16.73;10.50;;;10.00;61.80;;;;;;349603;28;1072;-56
2024/01/02 00:15:57;;;;;;;18.17;10.27;;;10.00;61.70;;;;;;349753;28;1103;-56
2024/01/02 00:16:08;;;;;;;19.23;10.27;;;10.00;61.60;;;;;;349723;28;1693;-55
2024/01/02 00:16:19;;;;;;;19.15;9.85;;;10.00;61.50;;;;;;349643;28;1000;-55
2024/01/02 00:16:30;;;;;;;20.17;10.23;;;10.00;61.40;;;;;;349776;28;882;-56
2024/01/02 00:16:40;;;;;;;19.90;10.30;;;10.00;61.30;;;;;;349730;28;1151;-57
2024/01/02 00:16:51;;;;;;;18.08;9.70;;;10.00;61.20;;;;;;349691;28;1790;-55
2024/01/02 00:17:02;;;;;;;16.83;9.27;;;10.00;61.10;;;;;;349684;28;1044;-56
2024/01/02 00:17:13;;;;;;;17.67;9.48;;;10.00;61.00;;;;;;349672;28;1104;-56
2024/01/02 00:17:24;;;;;;;18.85;9.93;;;10.00;61.00;;;;;;349606;28;1064;-58
2024/01/02 00:17:34;;;;;;;19.63;10.20;;;10.00;61.00;;;;;;349769;28;987;-55
2024/01/02 00:17:45;;;;;;;19.30;9.95;;;9.90;61.00;;;;;;349631;28;1304;-55
2024/01/02 00:17:56;;;;;;;20.07;9.77;;;10.00;60.90;;;;;;349672;28;1186;-54
2024/01/02 00:18:07;;;;;;;18.55;9.52;;;10.00;60.90;;;;;;349659;28;2783;-56
2024/01/02 00:18:18;;;;;;;17.60;9.57;;;10.00;60.90;;;;;;349767;28;1083;-56
2024/01/02 00:18:28;;;;;;;16.33;9.85;;;10.00;60.90;;;;;;349618;28;1016;-57
2024/01/02 00:18:39;;;;;;;15.65;9.98;;;9.90;60.90;;;;;;349662;28;1081;-56
2024/01/02 00:18:50;;;;;;;16.40;9.93;;;9.90;60.90;;;;;;349670;28;1109;-56
2024/01/02 00:19:01;;;;;;;17.85;9.88;;;10.00;60.90;;;;;;349688;28;1990;-56
2024/01/02 00:19:12;;;;;;;18.63;9.57;;;10.00;60.90;;;;;;349698;28;923;-55
2024/01/02 00:19:23;;;;;;;19.27;9.68;;;9.90;61.00;;;;;;349746;28;1881;-55
2024/01/02 00:19:34;;;;;;;18.05;9.65;;;9.90;61.00;;;;;;349688;28;1094;-55
2024/01/02 00:19:44;;;;;;;17.90;9.80;;;9.90;61.00;;;;;;349700;28;972;-56
2024/01/02 00:19:55;;;;;;;16.95;9.52;;;9.90;61.00;;;;;;349626;28;918;-56
2024/01/02 00:20:07;;;;;;;18.48;9.52;;;9.90;61.00;;;;;;349712;28;1227;-56
2024/01/02 00:20:18;;;;;;;18.88;9.77;;;9.90;61.00;;;;;;349701;28;1078;-56
2024/01/02 00:20:29;;;;;;;17.33;9.70;;;9.90;61.00;;;;;;349720;28;897;-56
2024/01/02 00:20:40;;;;;;;16.63;9.63;;;9.90;60.90;;;;;;349621;28;1131;-55
2024/01/02 00:20:51;;;;;;;16.38;9.48;;;10.00;60.90;;;;;;349741;28;1024;-55
2024/01/02 00:21:02;;;;;;;15.40;8.98;;;9.90;60.90;;;;;;349710;28;984;-55
2024/01/02 00:21:13;;;;;;;16.60;9.10;;;9.90;60.90;;;;;;349688;28;1904;-55
2024/01/02 00:21:24;;;;;;;16.38;9.43;;;9.90;60.90;;;;;;349612;28;1104;-55
2024/01/02 00:21:34;;;;;;;16.92;9.77;;;9.90;60.90;;;;;;349732;28;1072;-55
2024/01/02 00:21:46;;;;;;;17.13;10.68;;;9.90;60.90;;;;;;349683;28;1028;-55
2024/01/02 00:21:56;;;;;;;17.77;11.45;;;9.90;60.90;;;;;;349759;28;850;-56
2024/01/02 00:22:07;;;;;;;18.52;11.32;;;9.90;60.80;;;;;;349641;28;1115;-56
2024/01/02 00:22:18;;;;;;;19.77;10.67;;;9.90;60.80;;;;;;349666;28;1163;-56
2024/01/02 00:22:28;;;;;;;20.30;10.48;;;9.90;60.80;;;;;;349731;28;1103;-56
2024/01/02 00:22:39;;;;;;;17.95;10.05;;;9.90;60.80;;;;;;349727;28;1025;-57
2024/01/02 00:22:50;;;;;;;20.25;10.38;;;9.90;60.80;;;;;;349608;28;1878;-55
2024/01/02 00:23:01;;;;;;;22.30;11.03;;;9.90;60.80;;;;;;349699;28;1399;-58
2024/01/02 00:23:12;;;;;;;21.93;11.53;;;9.90;60.80;;;;;;349696;28;1007;-57
2024/01/02 00:23:22;;;;;;;19.50;11.98;;;9.80;60.70;;;;;;349775;28;876;-55
2024/01/02 00:23:33;;;;;;;18.65;11.80;;;9.80;60.70;;;;;;349654;28;1543;-57
2024/01/02 00:23:44;;;;;;;19.35;11.45;;;9.90;60.70;;;;;;349752;28;1008;-56
2024/01/02 00:23:57;;;;;;;18.45;10.48;;;9.80;60.70;;;;;;349718;28;1079;-58
2024/01/02 00:24:08;;;;;;;17.45;9.93;;;9.90;60.60;;;;;;349754;28;891;-57
2024/01/02 00:24:19;;;;;;;18.20;9.57;;;9.80;60.60;;;;;;349614;28;1119;-57
2024/01/02 00:24:29;;;;;;;19.17;9.50;;;9.80;60.60;;;;;;349737;28;1036;-56
2024/01/02 00:24:41;;;;;;;18.75;9.55;;;9.80;60.60;;;;;;349715;28;997;-55
2024/01/02 00:24:51;;;;;;;15.00;9.15;;;9.80;60.60;;;;;;349685;28;962;-57
2024/01/02 00:25:03;;;;;;;15.93;9.03;;;9.80;60.60;;;;;;349591;28;1392;-55
2024/01/02 00:25:14;;;;;;;16.85;8.82;;;9.80;60.70;;;;;;349274;28;1089;-56
2024/01/02 00:25:24;;;;;;;16.73;8.50;;;9.80;60.70;;;;;;349697;28;833;-57
2024/01/02 00:25:35;;;;;;;15.63;8.40;;;9.80;60.70;;;;;;349695;28;996;-57
2024/01/02 00:25:46;;;;;;;15.60;8.32;;;9.80;60.70;;;;;;349669;28;960;-57
2024/01/02 00:25:57;;;;;;;16.88;8.13;;;9.80;60.60;;;;;;349680;28;1080;-56
2024/01/02 00:26:08;;;;;;;16.33;7.88;;;9.80;60.60;;;;;;349724;28;1031;-56
2024/01/02 00:26:18;;;;;;;15.57;7.80;;;9.80;60.70;;;;;;349748;28;1040;-56
2024/01/02 00:26:29;;;;;;;16.08;8.20;;;9.80;60.70;;;;;;349620;28;1048;-56
2024/01/02 00:26:40;;;;;;;17.13;8.23;;;9.80;60.70;;;;;;349666;28;1065;-56
2024/01/02 00:26:51;;;;;;;17.48;8.27;;;9.80;60.70;;;;;;349712;28;1067;-57
2024/01/02 00:27:02;;;;;;;16.08;8.15;;;9.80;60.70;;;;;;349675;28;1091;-56
2024/01/02 00:27:13;;;;;;;14.95;8.02;;;9.80;60.70;;;;;;349628;28;971;-56
2024/01/02 00:27:24;;;;;;;15.30;8.20;;;9.80;60.70;;;;;;349723;28;956;-55
2024/01/02 00:27:34;;;;;;;15.53;8.03;;;9.80;60.80;;;;;;349691;28;1012;-55
2024/01/02 00:27:45;;;;;;;15.05;7.85;;;9.80;60.80;;;;;;349719;28;1007;-57
2024/01/02 00:27:57;;;;;;;15.00;7.88;;;9.80;60.70;;;;;;349610;28;985;-56
2024/01/02 00:28:09;;;;;;;13.77;7.75;;;9.80;60.70;;;;;;349773;28;1265;-54
2024/01/02 00:28:20;;;;;;;14.77;8.15;;;9.70;60.60;;;;;;349648;28;1147;-55
2024/01/02 00:28:31;;;;;;;13.75;8.23;;;9.80;60.50;;;;;;349632;28;1056;-55
2024/01/02 00:28:42;;;;;;;15.02;8.65;;;9.80;60.60;;;;;;349678;28;1245;-55
2024/01/02 00:28:52;;;;;;;15.23;8.85;;;9.80;60.60;;;;;;349631;28;1579;-56
2024/01/02 00:29:03;;;;;;;15.23;8.80;;;9.80;60.60;;;;;;349620;28;1099;-56
2024/01/02 00:29:14;;;;;;;14.88;8.57;;;9.80;60.60;;;;;;349684;28;1641;-56
2024/01/02 00:29:25;;;;;;;14.18;8.52;;;9.80;60.60;;;;;;349732;28;1036;-56
2024/01/02 00:29:35;;;;;;;15.63;8.65;;;9.80;60.60;;;;;;349544;28;1572;-55
2024/01/02 00:29:46;;;;;;;16.10;8.90;;;9.70;60.60;;;;;;349609;28;1123;-56
2024/01/02 00:29:57;;;;;;;17.83;9.13;;;9.80;60.60;;;;;;349634;28;1272;-57
2024/01/02 00:30:08;;;;;;;17.05;9.20;;;9.70;60.60;;;;;;349593;28;1044;-55
2024/01/02 00:30:19;;;;;;;14.80;8.98;;;9.70;60.50;;;;;;349762;28;889;-56
2024/01/02 00:30:32;;;;;;;12.93;8.83;;;9.70;60.60;;;;;;349726;28;1032;-55
2024/01/02 00:30:42;;;;;;;12.48;8.60;;;9.80;60.60;;;;;;349585;28;1040;-57
2024/01/02 00:30:53;;;;;;;13.00;8.07;;;9.70;60.60;;;;;;349712;28;988;-56
2024/01/02 00:31:04;;;;;;;13.57;8.15;;;9.70;60.70;;;;;;349703;28;814;-55
2024/01/02 00:31:15;;;;;;;15.18;8.07;;;9.80;60.70;;;;;;349598;28;1043;-56
2024/01/02 00:31:25;;;;;;;14.93;8.47;;;9.70;60.70;;;;;;349697;28;1031;-55
2024/01/02 00:31:36;;;;;;;14.80;8.43;;;9.70;60.60;;;;;;349680;28;1087;-55
2024/01/02 00:31:47;;;;;;;15.38;8.60;;;9.70;60.70;;;;;;349551;28;1120;-56
2024/01/02 00:31:58;;;;;;;15.63;8.35;;;9.70;60.60;;;;;;349691;28;865;-57
2024/01/02 00:32:08;;;;;;;14.30;8.00;;;9.70;60.70;;;;;;349741;28;893;-56
2024/01/02 00:32:19;;;;;;;14.43;7.77;;;9.70;60.70;;;;;;349563;28;1558;-57
2024/01/02 00:32:30;;;;;;;14.20;7.70;;;9.70;60.80;;;;;;349695;28;1071;-56
2024/01/02 00:32:41;;;;;;;15.02;7.68;;;9.70;60.80;;;;;;349687;28;1005;-56
2024/01/02 00:32:51;;;;;;;14.57;7.80;;;9.70;60.80;;;;;;349641;28;1083;-56
2024/01/02 00:33:03;;;;;;;15.50;8.20;;;9.70;60.90;;;;;;349737;28;885;-55
2024/01/02 00:33:14;;;;;;;14.30;8.57;;;9.70;60.90;;;;;;349752;28;868;-56
2024/01/02 00:33:25;;;;;;;14.35;8.73;;;9.70;60.90;;;;;;349624;28;1468;-58
2024/01/02 00:33:35;;;;;;;15.95;8.95;;;9.70;60.90;;;;;;349640;28;1100;-57
2024/01/02 00:33:46;;;;;;;17.48;9.10;;;9.70;60.90;;;;;;349654;28;977;-55
2024/01/02 00:33:57;;;;;;;16.42;8.95;;;9.70;60.90;;;;;;349498;28;1147;-56
2024/01/02 00:34:08;;;;;;;16.50;8.97;;;9.70;60.90;;;;;;349385;28;976;-55
2024/01/02 00:34:18;;;;;;;18.45;9.52;;;9.70;60.90;;;;;;349533;28;905;-56
2024/01/02 00:34:29;;;;;;;19.23;9.70;;;9.70;60.90;;;;;;349557;28;850;-55
2024/01/02 00:34:40;;;;;;;17.80;9.65;;;9.70;60.90;;;;;;349602;28;1521;-57
2024/01/02 00:34:51;;;;;;;16.30;9.10;;;9.70;60.90;;;;;;349633;28;978;-56
2024/01/02 00:35:03;;;;;;;16.60;9.10;;;9.70;60.90;;;;;;349706;28;1314;-55
2024/01/02 00:35:14;;;;;;;15.92;8.92;;;9.70;60.90;;;;;;349697;28;1230;-56
2024/01/02 00:35:24;;;;;;;16.50;9.10;;;9.70;60.90;;;;;;349630;28;1055;-55
2024/01/02 00:35:35;;;;;;;16.13;8.90;;;9.70;60.90;;;;;;349646;28;1091;-56
2024/01/02 00:35:46;;;;;;;17.20;9.02;;;9.70;60.90;;;;;;349726;28;1139;-56
2024/01/02 00:35:57;;;;;;;16.63;8.95;;;9.70;60.90;;;;;;349697;28;1099;-57
2024/01/02 00:36:11;;;;;;;15.65;8.65;;;9.70;60.90;;;;;;349572;28;1012;-57
2024/01/02 00:36:22;;;;;;;14.93;8.48;;;9.70;60.90;;;;;;349729;28;1087;-56
2024/01/02 00:36:33;;;;;;;15.45;8.90;;;9.70;60.90;;;;;;349743;28;874;-56
2024/01/02 00:36:43;;;;;;;15.80;8.65;;;9.60;60.90;;;;;;349568;28;1949;-56
2024/01/02 00:36:54;;;;;;;16.67;8.80;;;9.60;60.90;;;;;;349661;28;1909;-58
2024/01/02 00:37:05;;;;;;;15.77;7.88;;;9.60;60.90;;;;;;349705;28;1024;-56
2024/01/02 00:37:16;;;;;;;18.15;8.10;;;9.70;60.90;;;;;;349586;28;1155;-56
2024/01/02 00:37:27;;;;;;;18.45;8.20;;;9.60;61.00;;;;;;349720;28;1068;-55
2024/01/02 00:37:37;;;;;;;18.42;8.98;;;9.60;60.90;;;;;;349635;28;1072;-57
2024/01/02 00:37:48;;;;;;;16.10;8.95;;;9.60;60.90;;;;;;349671;28;1406;-54
2024/01/02 00:38:03;;;;;;;15.35;9.18;;;9.60;60.90;;;;;;349628;28;2101;-56
2024/01/02 00:38:14;;;;;;;19.42;9.70;;;9.60;60.90;;;;;;349668;28;989;-55
2024/01/02 00:38:27;;;;;;;19.05;9.90;;;9.60;61.00;;;;;;349759;28;881;-55
2024/01/02 00:38:38;;;;;;;16.05;9.23;;;9.60;61.00;;;;;;349612;28;1797;-55
2024/01/02 00:38:49;;;;;;;16.02;9.05;;;9.60;61.00;;;;;;349712;28;1543;-55
2024/01/02 00:38:59;;;;;;;16.50;9.17;;;9.60;61.00;;;;;;349710;28;997;-55
2024/01/02 00:39:10;;;;;;;16.15;9.48;;;9.60;61.10;;;;;;349527;28;1914;-56
2024/01/02 00:39:21;;;;;;;15.90;9.80;;;9.60;61.10;;;;;;349751;28;901;-55
2024/01/02 00:39:32;;;;;;;15.27;9.90;;;9.60;61.10;;;;;;349647;28;1287;-55
2024/01/02 00:39:42;;;;;;;16.60;9.65;;;9.60;61.10;;;;;;349636;28;1052;-56
2024/01/02 00:39:53;;;;;;;17.77;9.87;;;9.60;61.10;;;;;;349570;28;1060;-56
2024/01/02 00:40:05;;;;;;;17.52;9.90;;;9.60;61.10;;;;;;349707;28;1497;-55
2024/01/02 00:40:16;;;;;;;16.17;9.90;;;9.60;61.10;;;;;;349688;28;1035;-55
2024/01/02 00:40:27;;;;;;;16.02;9.60;;;9.60;61.10;;;;;;349662;28;1896;-56
2024/01/02 00:40:37;;;;;;;15.93;9.50;;;9.60;61.10;;;;;;349591;28;1120;-57
2024/01/02 00:40:50;;;;;;;18.23;9.43;;;9.70;61.10;;;;;;349706;28;826;-55
2024/01/02 00:41:02;;;;;;;19.27;9.38;;;9.60;61.10;;;;;;349736;28;857;-54
2024/01/02 00:41:12;;;;;;;19.42;9.80;;;9.60;61.10;;;;;;349569;28;1091;-56
2024/01/02 00:41:23;;;;;;;18.45;10.10;;;9.60;61.10;;;;;;349668;28;1095;-56
2024/01/02 00:41:34;;;;;;;18.38;10.20;;;9.60;61.00;;;;;;349698;28;838;-57
2024/01/02 00:41:45;;;;;;;19.33;10.23;;;9.60;61.10;;;;;;349661;28;1016;-57
2024/01/02 00:41:56;;;;;;;20.98;10.00;;;9.60;61.10;;;;;;349602;28;1158;-55
2024/01/02 00:42:07;;;;;;;22.63;10.03;;;9.60;61.10;;;;;;349667;28;1028;-56
2024/01/02 00:42:18;;;;;;;23.02;10.15;;;9.60;61.10;;;;;;349683;28;1091;-55
2024/01/02 00:42:28;;;;;;;21.63;10.80;;;9.70;61.10;;;;;;349709;28;1083;-55
2024/01/02 00:42:39;;;;;;;20.98;11.13;;;9.70;61.10;;;;;;349665;28;906;-54
2024/01/02 00:42:50;;;;;;;20.13;10.93;;;9.60;61.10;;;;;;349682;28;960;-55
2024/01/02 00:43:01;;;;;;;19.88;10.90;;;9.60;61.10;;;;;;349740;28;932;-55
2024/01/02 00:43:12;;;;;;;20.55;10.63;;;9.60;61.10;;;;;;349740;28;1871;-54
2024/01/02 00:43:23;;;;;;;21.02;10.85;;;9.60;61.20;;;;;;349665;28;938;-55
2024/01/02 00:43:33;;;;;;;20.08;10.13;;;9.60;61.20;;;;;;349699;28;1055;-56
2024/01/02 00:43:44;;;;;;;18.67;9.50;;;9.60;61.20;;;;;;349738;28;933;-56
2024/01/02 00:43:55;;;;;;;17.55;9.10;;;9.60;61.20;;;;;;349690;28;913;-55
2024/01/02 00:44:06;;;;;;;16.73;9.25;;;9.60;61.20;;;;;;349624;28;1432;-55
2024/01/02 00:44:16;;;;;;;16.90;9.25;;;9.60;61.30;;;;;;349669;28;993;-56
2024/01/02 00:44:27;;;;;;;15.23;9.02;;;9.60;61.30;;;;;;349621;28;1528;-55
2024/01/02 00:44:38;;;;;;;14.80;8.67;;;9.60;61.30;;;;;;349685;28;1038;-56
2024/01/02 00:44:49;;;;;;;14.32;8.70;;;9.70;61.30;;;;;;349604;28;924;-56
2024/01/02 00:45:02;;;;;;;15.55;8.85;;;9.60;61.30;;;;;;349666;28;1020;-56
2024/01/02 00:45:13;;;;;;;15.38;8.73;;;9.60;61.30;;;;;;349727;28;936;-56
2024/01/02 00:45:24;;;;;;;17.33;9.35;;;9.60;61.30;;;;;;349652;28;998;-55
2024/01/02 00:45:35;;;;;;;18.75;9.70;;;9.70;61.30;;;;;;349709;28;905;-55
2024/01/02 00:45:45;;;;;;;18.80;9.85;;;9.70;61.30;;;;;;349737;28;878;-55
2024/01/02 00:45:59;;;;;;;16.75;9.35;;;9.70;61.30;;;;;;349666;28;1259;-55
2024/01/02 00:46:10;;;;;;;15.90;8.68;;;9.60;61.30;;;;;;349593;28;1026;-55
2024/01/02 00:46:21;;;;;;;15.30;8.55;;;9.70;61.30;;;;;;349630;28;1237;-57
2024/01/02 00:46:32;;;;;;;15.63;8.88;;;9.70;61.30;;;;;;349531;28;1747;-54
2024/01/02 00:46:42;;;;;;;14.53;8.73;;;9.60;61.20;;;;;;349576;28;1057;-57
2024/01/02 00:46:53;;;;;;;14.60;8.80;;;9.60;61.20;;;;;;349697;28;984;-56
2024/01/02 00:47:04;;;;;;;14.93;8.80;;;9.60;61.30;;;;;;349721;28;992;-55
2024/01/02 00:47:15;;;;;;;17.88;9.00;;;9.60;61.30;;;;;;349685;28;1063;-56
2024/01/02 00:47:26;;;;;;;18.48;8.63;;;9.60;61.30;;;;;;349634;28;1048;-55
2024/01/02 00:47:37;;;;;;;18.63;9.10;;;9.60;61.30;;;;;;349610;28;1192;-55
2024/01/02 00:47:48;;;;;;;17.65;9.43;;;9.60;61.30;;;;;;349653;28;1816;-56
2024/01/02 00:47:59;;;;;;;17.30;9.60;;;9.60;61.30;;;;;;349736;28;964;-55
2024/01/02 00:48:10;;;;;;;17.42;9.38;;;9.60;61.40;;;;;;349625;28;1960;-54
2024/01/02 00:48:20;;;;;;;16.02;9.20;;;9.60;61.40;;;;;;349700;28;1087;-54
2024/01/02 00:48:31;;;;;;;16.10;9.05;;;9.60;61.40;;;;;;349692;28;985;-55
2024/01/02 00:48:42;;;;;;;15.97;9.23;;;9.60;61.40;;;;;;349595;28;826;-58
2024/01/02 00:48:52;;;;;;;16.83;9.23;;;9.60;61.40;;;;;;349660;28;877;-54
2024/01/02 00:49:03;;;;;;;18.00;9.27;;;9.60;61.40;;;;;;349646;28;1040;-56
2024/01/02 00:49:14;;;;;;;17.33;8.88;;;9.60;61.40;;;;;;349616;28;1086;-56
2024/01/02 00:49:25;;;;;;;16.25;8.60;;;9.50;61.40;;;;;;349641;28;1289;-56
2024/01/02 00:49:36;;;;;;;15.13;8.27;;;9.50;61.50;;;;;;349642;28;1096;-56
2024/01/02 00:49:48;;;;;;;17.10;8.30;;;9.60;61.50;;;;;;349550;28;1087;-54
2024/01/02 00:49:59;;;;;;;16.38;8.25;;;9.60;61.50;;;;;;349726;28;1052;-55
2024/01/02 00:50:10;;;;;;;14.87;7.97;;;9.60;61.50;;;;;;349666;28;1004;-55
2024/01/02 00:50:22;;;;;;;14.42;8.00;;;9.60;61.40;;;;;;349557;28;901;-54
2024/01/02 00:50:32;;;;;;;16.28;8.00;;;9.50;61.40;;;;;;349657;28;1135;-55
2024/01/02 00:50:43;;;;;;;17.40;8.13;;;9.50;61.40;;;;;;349630;28;1029;-55
2024/01/02 00:50:54;;;;;;;17.80;8.38;;;9.60;61.40;;;;;;349610;28;926;-55
2024/01/02 00:51:05;;;;;;;16.60;8.68;;;9.50;61.40;;;;;;349609;28;1185;-55
2024/01/02 00:51:16;;;;;;;16.42;8.93;;;9.50;61.30;;;;;;349614;28;1689;-54
2024/01/02 00:51:26;;;;;;;16.90;8.35;;;9.50;61.40;;;;;;349552;28;1727;-55
2024/01/02 00:51:37;;;;;;;17.25;8.05;;;9.50;61.40;;;;;;349623;28;897;-56
2024/01/02 00:51:48;;;;;;;19.20;8.43;;;9.50;61.40;;;;;;349655;28;1111;-56
2024/01/02 00:51:59;;;;;;;18.40;8.77;;;9.50;61.50;;;;;;349517;28;1133;-54
2024/01/02 00:52:09;;;;;;;18.17;8.75;;;9.50;61.50;;;;;;349640;28;1028;-56
2024/01/02 00:52:20;;;;;;;18.00;8.40;;;9.50;61.50;;;;;;349733;28;1004;-55
2024/01/02 00:52:31;;;;;;;16.00;8.35;;;9.50;61.50;;;;;;349629;28;1043;-55
2024/01/02 00:52:42;;;;;;;16.60;8.30;;;9.50;61.50;;;;;;349666;28;902;-55
2024/01/02 00:52:52;;;;;;;15.73;8.35;;;9.50;61.60;;;;;;349732;28;909;-54
2024/01/02 00:53:05;;;;;;;15.63;8.20;;;9.50;61.60;;;;;;349575;28;1072;-55
2024/01/02 00:53:15;;;;;;;14.40;8.48;;;9.50;61.60;;;;;;349633;28;1148;-56
2024/01/02 00:53:26;;;;;;;14.88;8.98;;;9.50;61.60;;;;;;349697;28;984;-54
2024/01/02 00:53:37;;;;;;;16.02;9.43;;;9.60;61.60;;;;;;349554;28;1389;-56
2024/01/02 00:53:48;;;;;;;15.35;9.02;;;9.50;61.60;;;;;;349635;28;1178;-54
2024/01/02 00:54:01;;;;;;;16.90;8.60;;;9.50;61.50;;;;;;349584;28;1395;-54
2024/01/02 00:54:12;;;;;;;17.63;8.52;;;9.50;61.50;;;;;;349584;28;980;-56
2024/01/02 00:54:22;;;;;;;18.77;8.90;;;9.50;61.50;;;;;;349662;28;1010;-55
2024/01/02 00:54:33;;;;;;;18.70;8.70;;;9.50;61.50;;;;;;349676;28;1036;-55
2024/01/02 00:54:44;;;;;;;17.13;8.32;;;9.50;61.50;;;;;;349530;28;1536;-56
2024/01/02 00:54:55;;;;;;;15.50;7.95;;;9.50;61.60;;;;;;349717;28;814;-55
2024/01/02 00:55:06;;;;;;;14.45;8.10;;;9.50;61.50;;;;;;349677;28;937;-55
2024/01/02 00:55:17;;;;;;;15.52;8.27;;;9.50;61.60;;;;;;349555;28;1211;-55
2024/01/02 00:55:28;;;;;;;17.93;8.63;;;9.50;61.50;;;;;;349636;28;1626;-55
2024/01/02 00:55:39;;;;;;;22.40;9.05;;;9.50;61.50;;;;;;349702;28;834;-55
2024/01/02 00:55:49;;;;;;;20.52;8.82;;;9.50;61.50;;;;;;349554;28;961;-55
2024/01/02 00:56:00;;;;;;;18.73;8.57;;;9.50;61.50;;;;;;349707;28;1004;-54
2024/01/02 00:56:11;;;;;;;14.32;8.15;;;9.50;61.50;;;;;;349713;28;1837;-54
2024/01/02 00:56:22;;;;;;;15.87;8.57;;;9.50;61.50;;;;;;349525;28;1142;-55
2024/01/02 00:56:33;;;;;;;14.93;7.93;;;9.40;61.50;;;;;;349703;28;969;-54
2024/01/02 00:56:43;;;;;;;15.38;7.72;;;9.50;61.50;;;;;;349687;28;984;-56
2024/01/02 00:56:54;;;;;;;14.50;7.50;;;9.50;61.50;;;;;;349610;28;903;-54
2024/01/02 00:57:05;;;;;;;15.70;7.85;;;9.50;61.50;;;;;;349635;28;1029;-54
2024/01/02 00:57:16;;;;;;;17.38;8.25;;;9.50;61.50;;;;;;349667;28;1103;-55
2024/01/02 00:57:26;;;;;;;18.43;8.47;;;9.50;61.50;;;;;;349546;28;1067;-55
2024/01/02 00:57:37;;;;;;;16.67;8.13;;;9.50;61.50;;;;;;349741;28;862;-55
2024/01/02 00:57:48;;;;;;;15.63;7.93;;;9.50;61.50;;;;;;349554;28;1976;-54
2024/01/02 00:57:59;;;;;;;16.27;7.80;;;9.50;61.50;;;;;;349505;28;1156;-54
2024/01/02 00:58:09;;;;;;;18.27;7.90;;;9.50;61.50;;;;;;349690;28;1556;-54